Cash, South Dakota
Current Conditions -  °F | °C
As of 3:53 AM on Thursday 23 Oct 2014 (Local Time) from KHEI Reporting Station
Clear Clear  
Wind Chill: 29°   Ceiling: Unl
Heat Index: 29°   Visibility: 10mi
Dew Point: 23°   Wind: 0mph
Humidity: 78%   Direction: NA
Pressure: 29.94"   Gusts: NA
Location:  45.5161°N, 102.519°W
Report Text: KHEI 230953Z AUTO 00000KT 10SM CLR M02/M05 A2994 RMK AO2 SLP147 T10171050
Loading
Personal Weather Stations






























Interactive Weather Map
Tropical Storm Tracking
New forecast layout! Learn more

10-Day Weather Forecast

Advertisements
Track Severe Weather on mobile